Time,TemperatureF,DewpointF,PressureIn,WindDirection,WindDirectionDegrees,WindSpeedMPH,WindSpeedGustMPH,Humidity,HourlyPrecipIn,Conditions,Clouds,dailyrainin,SoftwareType,DateUTC
2013-02-02 00:04:00,20.0,10.1,30.21,SSW,194,11.4,15.0,65,0.00,SCT,,0.00,WeatherDisplay:10.37,2013-02-02 06:04:00,
2013-02-02 00:09:00,20.0,10.1,30.21,SE,145,11.2,18.4,65,0.00,SCT,,0.00,WeatherDisplay:10.37,2013-02-02 06:09:00,
2013-02-02 00:14:00,20.0,10.1,30.20,SSE,161,6.0,9.0,65,0.00,BKN,,0.00,WeatherDisplay:10.37,2013-02-02 06:14:00,
2013-02-02 00:19:00,20.0,10.1,30.20,SSE,148,6.1,13.8,65,0.00,BKN,,0.00,WeatherDisplay:10.37,2013-02-02 06:19:00,
2013-02-02 00:24:00,20.0,10.5,30.20,South,184,10.0,16.1,66,0.00,BKN,,0.00,WeatherDisplay:10.37,2013-02-02 06:24:00,
2013-02-02 00:29:00,19.9,11.0,30.20,South,185,3.6,4.6,68,0.00,BKN,,0.00,WeatherDisplay:10.37,2013-02-02 06:29:00,
2013-02-02 00:34:00,19.9,11.4,30.20,South,170,6.0,8.0,69,0.00,OVC,,0.00,WeatherDisplay:10.37,2013-02-02 06:34:00,
2013-02-02 00:39:00,19.7,12.1,30.20,SSE,166,3.5,5.8,72,0.00,OVC,,0.00,WeatherDisplay:10.37,2013-02-02 06:39:00,
2013-02-02 00:44:00,19.5,12.6,30.19,SSE,163,8.0,11.0,74,0.00,OVC,,0.00,WeatherDisplay:10.37,2013-02-02 06:44:00,
2013-02-02 00:49:00,19.4,13.1,30.19,SSE,156,5.0,9.0,76,0.00,OVC,,0.00,WeatherDisplay:10.37,2013-02-02 06:49:00,
2013-02-02 00:54:00,19.4,13.7,30.19,SSE,160,3.0,8.0,78,0.00,-SN,,0.00,WeatherDisplay:10.37,2013-02-02 06:54:00,
2013-02-02 00:59:00,19.4,13.9,30.19,WNW,301,8.0,8.1,79,0.00,-SN,,0.00,WeatherDisplay:10.37,2013-02-02 06:59:00,
2013-02-02 01:04:00,19.2,14.0,30.19,South,191,7.8,8.1,80,0.00,-SN,,0.00,WeatherDisplay:10.37,2013-02-02 07:04:00,
2013-02-02 01:09:00,19.2,14.0,30.19,South,177,6.0,8.0,80,0.00,-SN,,0.00,WeatherDisplay:10.37,2013-02-02 07:09:00,
2013-02-02 01:14:00,19.2,14.3,30.19,South,186,3.0,8.0,81,0.00,-SN,,0.00,WeatherDisplay:10.37,2013-02-02 07:14:00,
2013-02-02 01:19:00,19.2,14.3,30.19,South,176,1.0,8.0,81,0.00,-SN,,0.00,WeatherDisplay:10.37,2013-02-02 07:19:00,
2013-02-02 01:24:00,19.2,14.6,30.20,SSE,162,1.0,6.0,82,0.00,-SN,,0.00,WeatherDisplay:10.37,2013-02-02 07:24:00,
2013-02-02 01:29:00,19.4,14.8,30.20,South,185,1.1,1.1,82,0.00,-SN,,0.00,WeatherDisplay:10.37,2013-02-02 07:29:00,
2013-02-02 01:34:00,19.4,14.8,30.20,South,182,2.0,5.0,82,0.00,-SN,,0.00,WeatherDisplay:10.37,2013-02-02 07:34:00,
2013-02-02 01:39:00,19.4,14.8,30.21,South,180,1.0,3.0,82,0.00,-SN,,0.00,WeatherDisplay:10.37,2013-02-02 07:39:00,
2013-02-02 01:44:00,19.4,15.1,30.21,SSE,167,1.0,5.0,83,0.00,-SN,,0.00,WeatherDisplay:10.37,2013-02-02 07:44:00,
2013-02-02 01:49:00,19.4,15.1,30.21,South,177,1.0,9.0,83,0.00,-SN,,0.00,WeatherDisplay:10.37,2013-02-02 07:49:00,
2013-02-02 01:54:00,19.4,15.1,30.21,South,182,0.9,3.5,83,0.00,-SN,,0.00,WeatherDisplay:10.37,2013-02-02 07:54:00,
2013-02-02 01:59:00,19.4,15.4,30.21,South,187,1.0,1.5,84,0.00,-SN,,0.00,WeatherDisplay:10.37,2013-02-02 07:59:00,
2013-02-02 02:05:00,19.4,15.4,30.21,South,176,2.4,6.0,84,0.00,-SN,,0.00,WeatherDisplay:10.37,2013-02-02 08:05:00,
2013-02-02 02:10:00,19.5,15.5,30.20,SE,138,0.9,5.8,84,0.00,-SN,,0.00,WeatherDisplay:10.37,2013-02-02 08:10:00,
2013-02-02 02:15:00,19.5,15.5,30.19,South,183,1.6,3.5,84,0.00,-SN,,0.00,WeatherDisplay:10.37,2013-02-02 08:15:00,
2013-02-02 02:20:00,19.5,15.5,30.19,South,183,2.5,3.5,84,0.00,-SN,,0.00,WeatherDisplay:10.37,2013-02-02 08:20:00,
2013-02-02 02:25:00,19.5,15.5,30.19,SSE,156,2.5,4.6,84,0.00,-SN,,0.00,WeatherDisplay:10.37,2013-02-02 08:25:00,
2013-02-02 02:30:00,19.5,15.7,30.19,SSE,147,3.1,4.6,85,0.00,-SN,,0.00,WeatherDisplay:10.37,2013-02-02 08:30:00,
2013-02-02 02:35:00,19.5,15.7,30.18,SSE,159,3.6,4.6,85,0.00,-SN,,0.00,WeatherDisplay:10.37,2013-02-02 08:35:00,
2013-02-02 02:40:00,19.5,15.7,30.17,SE,127,5.6,5.8,85,0.00,-SN,,0.00,WeatherDisplay:10.37,2013-02-02 08:40:00,
2013-02-02 02:45:00,19.5,15.7,30.17,South,187,1.1,1.5,85,0.00,-SN,,0.00,WeatherDisplay:10.37,2013-02-02 08:45:00,
2013-02-02 02:50:00,19.5,15.7,30.17,SE,142,2.5,4.6,85,0.00,-SN,,0.00,WeatherDisplay:10.37,2013-02-02 08:50:00,
2013-02-02 02:56:00,19.7,15.9,30.17,SE,138,2.9,5.8,85,0.00,-SN,,0.00,WeatherDisplay:10.37,2013-02-02 08:56:00,
2013-02-02 03:01:00,19.7,15.9,30.16,South,187,3.9,5.8,85,0.00,-SN,,0.00,WeatherDisplay:10.37,2013-02-02 09:01:00,
2013-02-02 03:06:00,19.7,16.2,30.16,SSE,164,5.2,5.2,86,0.00,-SN,,0.00,WeatherDisplay:10.37,2013-02-02 09:06:00,
2013-02-02 03:11:00,19.7,16.2,30.15,SE,124,4.2,7.5,86,0.00,-SN,,0.00,WeatherDisplay:10.37,2013-02-02 09:11:00,
2013-02-02 03:16:00,19.7,16.2,30.15,SSE,155,3.4,3.5,86,0.00,-SN,,0.00,WeatherDisplay:10.37,2013-02-02 09:16:00,
2013-02-02 03:21:00,19.7,16.2,30.15,South,185,6.0,6.0,86,0.00,-SN,,0.00,WeatherDisplay:10.37,2013-02-02 09:21:00,
2013-02-02 03:26:00,19.7,16.2,30.14,SSE,160,4.1,5.8,86,0.00,-SN,,0.00,WeatherDisplay:10.37,2013-02-02 09:26:00,
2013-02-02 03:31:00,19.7,16.2,30.14,SE,128,3.7,6.0,86,0.00,-SN,,0.00,WeatherDisplay:10.37,2013-02-02 09:31:00,
2013-02-02 03:36:00,19.7,16.2,30.14,SSE,147,8.1,8.1,86,0.00,-SN,,0.00,WeatherDisplay:10.37,2013-02-02 09:36:00,
2013-02-02 03:41:00,19.7,16.2,30.14,South,169,6.1,6.1,86,0.00,-SN,,0.00,WeatherDisplay:10.37,2013-02-02 09:41:00,
2013-02-02 03:46:00,19.7,16.2,30.14,South,173,4.6,4.6,86,0.00,-SN,,0.00,WeatherDisplay:10.37,2013-02-02 09:46:00,
2013-02-02 03:51:00,19.9,16.4,30.13,SSE,167,4.2,5.8,86,0.00,-SN,,0.00,WeatherDisplay:10.37,2013-02-02 09:51:00,
2013-02-02 03:56:00,19.9,16.4,30.13,South,173,7.2,8.1,86,0.00,-SN,,0.00,WeatherDisplay:10.37,2013-02-02 09:56:00,
2013-02-02 04:01:00,19.9,16.4,30.12,ESE,121,9.4,12.0,86,0.00,-SN,,0.00,WeatherDisplay:10.37,2013-02-02 10:01:00,
2013-02-02 04:06:00,19.9,16.4,30.12,SSE,150,7.7,8.1,86,0.00,-SN,,0.00,WeatherDisplay:10.37,2013-02-02 10:06:00,
2013-02-02 04:11:00,20.0,16.5,30.12,SSE,148,2.1,3.5,86,0.00,BKN,,0.00,WeatherDisplay:10.37,2013-02-02 10:11:00,
2013-02-02 04:16:00,20.0,16.5,30.12,SE,144,6.3,8.1,86,0.00,BKN,,0.00,WeatherDisplay:10.37,2013-02-02 10:16:00,
2013-02-02 04:21:00,20.2,16.7,30.11,South,186,9.2,10.4,86,0.00,BKN,,0.00,WeatherDisplay:10.37,2013-02-02 10:21:00,
2013-02-02 04:26:00,20.3,16.8,30.11,South,169,3.5,5.8,86,0.00,BKN,,0.00,WeatherDisplay:10.37,2013-02-02 10:26:00,
2013-02-02 04:31:00,20.3,16.8,30.11,South,183,6.7,6.7,86,0.00,OVC,,0.00,WeatherDisplay:10.37,2013-02-02 10:31:00,
2013-02-02 04:36:00,20.5,17.0,30.11,SE,130,6.0,8.1,86,0.00,OVC,,0.00,WeatherDisplay:10.37,2013-02-02 10:36:00,
2013-02-02 04:41:00,20.5,17.0,30.11,SSE,148,7.3,8.1,86,0.00,OVC,,0.00,WeatherDisplay:10.37,2013-02-02 10:41:00,
2013-02-02 04:46:00,20.6,17.3,30.11,SSE,164,5.0,9.2,87,0.00,OVC,,0.00,WeatherDisplay:10.37,2013-02-02 10:46:00,
2013-02-02 04:51:00,20.8,17.5,30.10,SE,139,7.9,9.2,87,0.00,OVC,,0.00,WeatherDisplay:10.37,2013-02-02 10:51:00,
2013-02-02 04:56:00,20.8,17.5,30.09,SSE,168,7.4,10.4,87,0.00,OVC,,0.00,WeatherDisplay:10.37,2013-02-02 10:56:00,
2013-02-02 05:01:00,21.0,17.5,30.09,SSE,159,5.5,5.5,86,0.00,OVC,,0.00,WeatherDisplay:10.37,2013-02-02 11:01:00,
2013-02-02 05:06:00,21.0,17.5,30.09,SSE,147,6.9,6.9,86,0.00,OVC,,0.00,WeatherDisplay:10.37,2013-02-02 11:06:00,
2013-02-02 05:11:00,21.1,17.6,30.09,South,169,3.0,4.6,86,0.00,SCT,,0.00,WeatherDisplay:10.37,2013-02-02 11:11:00,
2013-02-02 05:16:00,21.1,17.6,30.09,SE,144,5.3,7.5,86,0.00,SCT,,0.00,WeatherDisplay:10.37,2013-02-02 11:16:00,
2013-02-02 05:21:00,21.1,17.6,30.09,SSE,161,6.9,18.4,86,0.00,SCT,,0.00,WeatherDisplay:10.37,2013-02-02 11:21:00,
2013-02-02 05:26:00,21.1,17.6,30.08,SE,142,7.0,10.4,86,0.00,SCT,,0.00,WeatherDisplay:10.37,2013-02-02 11:26:00,
2013-02-02 05:31:00,21.1,17.3,30.08,SE,137,6.1,6.1,85,0.00,SCT,,0.00,WeatherDisplay:10.37,2013-02-02 11:31:00,
2013-02-02 05:36:00,21.1,17.3,30.08,SSE,163,3.3,4.6,85,0.00,SCT,,0.00,WeatherDisplay:10.37,2013-02-02 11:36:00,
2013-02-02 05:41:00,21.1,17.3,30.08,South,171,6.8,6.8,85,0.00,SCT,,0.00,WeatherDisplay:10.37,2013-02-02 11:41:00,
2013-02-02 05:46:00,21.1,17.3,30.08,SSE,149,2.6,4.6,85,0.00,SCT,,0.00,WeatherDisplay:10.37,2013-02-02 11:46:00,
2013-02-02 05:51:00,21.1,17.3,30.08,SE,143,5.7,5.7,85,0.00,SCT,,0.00,WeatherDisplay:10.37,2013-02-02 11:51:00,
2013-02-02 05:56:00,21.1,17.3,30.07,SSE,147,8.6,9.2,85,0.00,SCT,,0.00,WeatherDisplay:10.37,2013-02-02 11:56:00,
2013-02-02 06:01:00,21.1,17.0,30.07,South,183,9.8,9.8,84,0.00,SCT,,0.00,WeatherDisplay:10.37,2013-02-02 12:01:00,
2013-02-02 06:06:00,21.1,17.0,30.07,SE,146,6.1,6.1,84,0.00,SCT,,0.00,WeatherDisplay:10.37,2013-02-02 12:06:00,
2013-02-02 06:11:00,21.3,17.2,30.07,SE,139,7.5,10.4,84,0.00,CLR,,0.00,WeatherDisplay:10.37,2013-02-02 12:11:00,
2013-02-02 06:16:00,21.3,16.9,30.07,SE,141,3.3,8.1,83,0.00,CLR,,0.00,WeatherDisplay:10.37,2013-02-02 12:16:00,
2013-02-02 06:21:00,21.3,16.9,30.07,SE,138,9.6,9.6,83,0.00,CLR,,0.00,WeatherDisplay:10.37,2013-02-02 12:21:00,
2013-02-02 06:26:00,21.4,16.8,30.06,SSE,148,4.0,8.1,82,0.00,CLR,,0.00,WeatherDisplay:10.37,2013-02-02 12:26:00,
2013-02-02 06:31:00,21.4,16.8,30.06,South,178,1.5,10.4,82,0.00,BKN,,0.00,WeatherDisplay:10.37,2013-02-02 12:31:00,
2013-02-02 06:36:00,21.4,16.8,30.06,SSE,159,5.4,5.8,82,0.00,BKN,,0.00,WeatherDisplay:10.37,2013-02-02 12:36:00,
2013-02-02 06:41:00,21.4,16.8,30.06,South,190,6.7,6.7,82,0.00,BKN,,0.00,WeatherDisplay:10.37,2013-02-02 12:41:00,
2013-02-02 06:46:00,21.6,17.0,30.06,SSE,161,8.6,10.4,82,0.00,BKN,,0.00,WeatherDisplay:10.37,2013-02-02 12:46:00,
2013-02-02 06:51:00,21.6,17.0,30.06,SSE,165,2.3,5.8,82,0.00,SCT,,0.00,WeatherDisplay:10.37,2013-02-02 12:51:00,
2013-02-02 06:56:00,21.6,17.0,30.05,SSE,161,2.3,4.6,82,0.00,SCT,,0.00,WeatherDisplay:10.37,2013-02-02 12:56:00,
2013-02-02 07:01:00,21.6,17.0,30.05,South,171,10.8,15.0,82,0.00,SCT,,0.00,WeatherDisplay:10.37,2013-02-02 13:01:00,
2013-02-02 07:06:00,21.6,17.0,30.05,SSE,156,6.2,8.1,82,0.00,SCT,,0.00,WeatherDisplay:10.37,2013-02-02 13:06:00,
2013-02-02 07:11:00,21.6,17.0,30.05,South,172,6.6,6.6,82,0.00,CLR,,0.00,WeatherDisplay:10.37,2013-02-02 13:11:00,
2013-02-02 07:17:00,21.8,17.2,30.04,SE,141,4.7,5.8,82,0.00,CLR,,0.00,WeatherDisplay:10.37,2013-02-02 13:17:00,
2013-02-02 07:22:00,21.8,16.9,30.04,SSE,157,7.4,8.1,81,0.00,CLR,,0.00,WeatherDisplay:10.37,2013-02-02 13:22:00,
2013-02-02 07:27:00,21.8,16.9,30.04,South,174,6.0,6.0,81,0.00,CLR,,0.00,WeatherDisplay:10.37,2013-02-02 13:27:00,
2013-02-02 07:32:00,21.9,17.0,30.04,SSE,159,6.2,7.5,81,0.00,SCT,,0.00,WeatherDisplay:10.37,2013-02-02 13:32:00,
2013-02-02 07:37:00,21.9,17.0,30.04,SSE,153,2.5,4.6,81,0.00,SCT,,0.00,WeatherDisplay:10.37,2013-02-02 13:37:00,
2013-02-02 07:42:00,22.1,17.2,30.04,SSE,161,0.8,3.5,81,0.00,SCT,,0.00,WeatherDisplay:10.37,2013-02-02 13:42:00,
2013-02-02 07:47:00,22.2,17.3,30.05,South,175,4.0,4.6,81,0.00,SCT,,0.00,WeatherDisplay:10.37,2013-02-02 13:47:00,
2013-02-02 07:52:00,22.4,17.2,30.05,South,169,3.7,4.6,80,0.00,SCT,,0.00,WeatherDisplay:10.37,2013-02-02 13:52:00,
2013-02-02 07:57:00,22.5,17.3,30.05,SSE,163,1.2,1.2,80,0.00,SCT,,0.00,WeatherDisplay:10.37,2013-02-02 13:57:00,
2013-02-02 08:02:00,22.9,17.7,30.05,SSE,162,0.8,3.5,80,0.00,SCT,,0.00,WeatherDisplay:10.37,2013-02-02 14:02:00,
2013-02-02 08:07:00,23.0,17.7,30.05,SSE,160,0.0,1.1,80,0.00,SCT,,0.00,WeatherDisplay:10.37,2013-02-02 14:07:00,
2013-02-02 08:12:00,23.2,17.7,30.05,SW,219,2.6,3.5,79,0.00,SCT,,0.00,WeatherDisplay:10.37,2013-02-02 14:12:00,
2013-02-02 08:17:00,23.3,17.7,30.05,South,172,0.3,4.6,79,0.00,SCT,,0.00,WeatherDisplay:10.37,2013-02-02 14:17:00,
2013-02-02 08:22:00,23.3,17.7,30.05,South,173,1.2,3.5,79,0.00,SCT,,0.00,WeatherDisplay:10.37,2013-02-02 14:22:00,
2013-02-02 08:27:00,23.5,17.9,30.05,South,174,7.0,8.1,79,0.00,SCT,,0.00,WeatherDisplay:10.37,2013-02-02 14:27:00,
2013-02-02 08:32:00,23.6,18.0,30.05,South,169,1.9,3.5,79,0.00,-SN,,0.00,WeatherDisplay:10.37,2013-02-02 14:32:00,
2013-02-02 08:37:00,23.8,18.2,30.04,South,177,4.9,5.8,79,0.00,-SN,,0.00,WeatherDisplay:10.37,2013-02-02 14:37:00,
2013-02-02 08:42:00,23.9,18.0,30.04,SSE,148,2.1,5.8,78,0.00,-SN,,0.00,WeatherDisplay:10.37,2013-02-02 14:42:00,
2013-02-02 08:47:00,24.2,18.6,30.04,SSE,163,0.2,1.1,79,0.00,-SN,,0.00,WeatherDisplay:10.37,2013-02-02 14:47:00,
2013-02-02 08:52:00,24.4,18.8,30.04,SW,216,2.7,4.6,79,0.00,-SN,,0.00,WeatherDisplay:10.37,2013-02-02 14:52:00,
2013-02-02 08:57:00,24.5,18.9,30.04,South,173,3.3,4.6,79,0.00,-SN,,0.00,WeatherDisplay:10.37,2013-02-02 14:57:00,
2013-02-02 09:02:00,24.4,19.1,30.04,SSE,154,3.7,4.5,80,0.00,-SN,,0.00,WeatherDisplay:10.37,2013-02-02 15:02:00,
2013-02-02 09:07:00,24.4,19.1,30.03,SSE,158,4.5,4.6,80,0.00,-SN,,0.00,WeatherDisplay:10.37,2013-02-02 15:07:00,
2013-02-02 09:12:00,24.4,19.4,30.03,South,182,3.4,7.5,81,0.00,-SN,,0.00,WeatherDisplay:10.37,2013-02-02 15:12:00,
2013-02-02 09:17:00,24.4,19.4,30.03,West,263,2.6,4.6,81,0.00,-SN,,0.00,WeatherDisplay:10.37,2013-02-02 15:17:00,
2013-02-02 09:22:00,24.7,19.7,30.03,SSW,202,1.9,4.6,81,0.00,-SN,,0.00,WeatherDisplay:10.37,2013-02-02 15:22:00,
2013-02-02 09:27:00,24.8,19.8,30.03,SSW,210,0.2,1.1,81,0.00,-SN,,0.00,WeatherDisplay:10.37,2013-02-02 15:27:00,
2013-02-02 09:32:00,25.0,20.0,30.03,SW,216,3.7,8.1,81,0.00,-SN,,0.00,WeatherDisplay:10.37,2013-02-02 15:32:00,
2013-02-02 09:37:00,25.1,20.1,30.02,SW,215,1.7,4.6,81,0.00,-SN,,0.00,WeatherDisplay:10.37,2013-02-02 15:37:00,
2013-02-02 09:42:00,25.3,20.3,30.02,ESE,120,1.7,3.5,81,0.00,-SN,,0.00,WeatherDisplay:10.37,2013-02-02 15:42:00,
2013-02-02 09:47:00,25.4,20.4,30.02,SE,145,6.6,9.2,81,0.00,-SN,,0.00,WeatherDisplay:10.37,2013-02-02 15:47:00,
2013-02-02 09:52:00,25.4,20.4,30.02,SE,144,2.0,4.6,81,0.00,-SN,,0.00,WeatherDisplay:10.37,2013-02-02 15:52:00,
2013-02-02 09:57:00,25.4,20.4,30.02,SW,229,3.6,8.1,81,0.00,-SN,,0.00,WeatherDisplay:10.37,2013-02-02 15:57:00,
2013-02-02 10:02:00,25.6,20.6,30.02,South,180,0.0,1.1,81,0.00,-SN,,0.00,WeatherDisplay:10.37,2013-02-02 16:02:00,
2013-02-02 10:07:00,25.7,20.7,30.02,SW,223,2.2,3.5,81,0.00,-SN,,0.00,WeatherDisplay:10.37,2013-02-02 16:07:00,
2013-02-02 10:12:00,26.0,21.0,30.02,West,262,5.2,5.8,81,0.00,OVC,,0.00,WeatherDisplay:10.37,2013-02-02 16:12:00,
2013-02-02 10:17:00,26.0,21.0,30.02,WSW,252,2.1,5.8,81,0.00,OVC,,0.00,WeatherDisplay:10.37,2013-02-02 16:17:00,
2013-02-02 10:22:00,26.1,21.1,30.02,South,173,2.0,3.0,81,0.00,OVC,,0.00,WeatherDisplay:10.37,2013-02-02 16:22:00,
2013-02-02 10:27:00,26.3,21.0,30.02,West,261,0.0,1.1,80,0.00,OVC,,0.00,WeatherDisplay:10.37,2013-02-02 16:27:00,
2013-02-02 10:32:00,26.3,21.0,30.02,West,281,1.2,4.6,80,0.00,BKN,,0.00,WeatherDisplay:10.37,2013-02-02 16:32:00,
2013-02-02 10:37:00,26.4,21.1,30.02,WSW,246,5.6,5.8,80,0.00,BKN,,0.00,WeatherDisplay:10.37,2013-02-02 16:37:00,
2013-02-02 10:42:00,26.6,21.0,30.02,SSW,205,1.5,4.6,79,0.00,BKN,,0.00,WeatherDisplay:10.37,2013-02-02 16:42:00,
2013-02-02 10:47:00,26.6,21.0,30.02,SW,231,6.1,9.2,79,0.00,BKN,,0.00,WeatherDisplay:10.37,2013-02-02 16:47:00,
2013-02-02 10:52:00,26.7,21.1,30.02,South,169,3.3,4.6,79,0.00,SCT,,0.00,WeatherDisplay:10.37,2013-02-02 16:52:00,
2013-02-02 10:57:00,26.9,21.3,30.02,SW,236,2.4,3.5,79,0.00,SCT,,0.00,WeatherDisplay:10.37,2013-02-02 16:57:00,
2013-02-02 11:02:00,27.0,21.4,30.01,SW,236,5.8,7.5,79,0.00,SCT,,0.00,WeatherDisplay:10.37,2013-02-02 17:02:00,
2013-02-02 11:07:00,27.0,21.4,30.01,WSW,256,6.9,6.9,79,0.00,SCT,,0.00,WeatherDisplay:10.37,2013-02-02 17:07:00,
2013-02-02 11:12:00,27.2,21.5,30.01,NW,315,1.2,1.5,79,0.00,BKN,,0.00,WeatherDisplay:10.37,2013-02-02 17:12:00,
2013-02-02 11:17:00,27.3,21.6,30.01,SW,215,0.2,3.5,79,0.00,BKN,,0.00,WeatherDisplay:10.37,2013-02-02 17:17:00,
2013-02-02 11:22:00,27.6,21.9,30.01,West,268,0.5,0.0,79,0.00,BKN,,0.00,WeatherDisplay:10.37,2013-02-02 17:22:00,
2013-02-02 11:27:00,27.8,21.8,30.01,South,172,9.5,10.4,78,0.00,BKN,,0.00,WeatherDisplay:10.37,2013-02-02 17:27:00,
2013-02-02 11:32:00,27.8,21.5,30.01,WSW,250,4.7,5.8,77,0.00,OVC,,0.00,WeatherDisplay:10.37,2013-02-02 17:32:00,
2013-02-02 11:37:00,27.9,21.6,30.01,WNW,300,7.9,9.0,77,0.00,OVC,,0.00,WeatherDisplay:10.37,2013-02-02 17:37:00,
2013-02-02 11:42:00,27.9,21.6,30.00,NW,306,6.9,8.1,77,0.00,OVC,,0.00,WeatherDisplay:10.37,2013-02-02 17:42:00,
2013-02-02 11:47:00,27.9,21.6,30.00,West,263,7.2,9.2,77,0.00,OVC,,0.00,WeatherDisplay:10.37,2013-02-02 17:47:00,
2013-02-02 11:52:00,27.9,21.6,30.00,West,271,5.3,8.1,77,0.00,OVC,,0.00,WeatherDisplay:10.37,2013-02-02 17:52:00,
2013-02-02 11:57:00,28.1,21.8,30.00,West,274,2.1,3.5,77,0.00,OVC,,0.00,WeatherDisplay:10.37,2013-02-02 17:57:00,
2013-02-02 12:02:00,28.1,21.8,30.00,West,276,7.6,7.6,77,0.00,OVC,,0.00,WeatherDisplay:10.37,2013-02-02 18:02:00,
2013-02-02 12:07:00,27.9,21.3,30.00,SW,232,13.3,13.3,76,0.00,OVC,,0.00,WeatherDisplay:10.37,2013-02-02 18:07:00,
2013-02-02 12:12:00,27.9,21.3,29.99,West,269,5.5,10.4,76,0.00,OVC,,0.00,WeatherDisplay:10.37,2013-02-02 18:12:00,
2013-02-02 12:17:00,28.1,21.5,29.99,WNW,300,4.5,7.5,76,0.00,OVC,,0.00,WeatherDisplay:10.37,2013-02-02 18:17:00,
2013-02-02 12:22:00,28.1,21.5,29.99,WSW,258,3.2,4.6,76,0.00,OVC,,0.00,WeatherDisplay:10.37,2013-02-02 18:22:00,
2013-02-02 12:27:00,28.1,21.5,29.99,West,259,12.7,18.4,76,0.00,OVC,,0.00,WeatherDisplay:10.37,2013-02-02 18:27:00,
2013-02-02 12:32:00,28.1,21.5,29.99,West,260,6.9,10.5,76,0.00,OVC,,0.00,WeatherDisplay:10.37,2013-02-02 18:32:00,
2013-02-02 12:37:00,28.1,21.5,29.99,WNW,288,4.0,9.2,76,0.00,OVC,,0.00,WeatherDisplay:10.37,2013-02-02 18:37:00,
2013-02-02 12:42:00,28.1,21.5,29.99,WSW,248,4.8,9.2,76,0.00,OVC,,0.00,WeatherDisplay:10.37,2013-02-02 18:42:00,
2013-02-02 12:47:00,28.2,21.6,29.99,WSW,253,12.3,15.0,76,0.00,OVC,,0.00,WeatherDisplay:10.37,2013-02-02 18:47:00,
2013-02-02 12:52:00,28.2,21.6,29.99,WSW,246,6.1,9.2,76,0.00,OVC,,0.00,WeatherDisplay:10.37,2013-02-02 18:52:00,
2013-02-02 12:57:00,28.2,21.6,29.99,WNW,282,0.8,15.0,76,0.00,OVC,,0.00,WeatherDisplay:10.37,2013-02-02 18:57:00,
2013-02-02 13:02:00,28.2,21.9,29.99,NW,313,12.9,12.9,77,0.00,OVC,,0.00,WeatherDisplay:10.37,2013-02-02 19:02:00,
2013-02-02 13:07:00,28.2,21.6,29.99,West,273,5.3,6.0,76,0.00,OVC,,0.00,WeatherDisplay:10.37,2013-02-02 19:07:00,
2013-02-02 13:12:00,28.2,21.6,29.99,WSW,248,5.4,13.8,76,0.00,OVC,,0.00,WeatherDisplay:10.37,2013-02-02 19:12:00,
2013-02-02 13:17:00,28.2,21.9,29.99,WSW,242,0.6,4.6,77,0.00,OVC,,0.00,WeatherDisplay:10.37,2013-02-02 19:17:00,
2013-02-02 13:22:00,28.2,21.9,29.99,WNW,297,6.3,10.4,77,0.00,OVC,,0.00,WeatherDisplay:10.37,2013-02-02 19:22:00,
2013-02-02 13:27:00,28.2,21.9,29.99,West,281,4.8,9.2,77,0.00,OVC,,0.00,WeatherDisplay:10.37,2013-02-02 19:27:00,
2013-02-02 13:32:00,28.2,21.9,29.99,West,266,9.2,13.8,77,0.00,OVC,,0.00,WeatherDisplay:10.37,2013-02-02 19:32:00,
2013-02-02 13:37:00,28.1,21.8,29.99,West,267,6.1,8.1,77,0.00,OVC,,0.00,WeatherDisplay:10.37,2013-02-02 19:37:00,
2013-02-02 13:42:00,28.1,21.8,29.99,West,281,4.7,8.1,77,0.00,OVC,,0.00,WeatherDisplay:10.37,2013-02-02 19:42:00,
2013-02-02 13:47:00,28.1,21.8,29.99,WNW,301,7.1,11.5,77,0.00,OVC,,0.00,WeatherDisplay:10.37,2013-02-02 19:47:00,
2013-02-02 13:52:00,28.1,21.8,29.99,WNW,283,2.9,8.1,77,0.00,OVC,,0.00,WeatherDisplay:10.37,2013-02-02 19:52:00,
2013-02-02 13:57:00,28.1,21.8,29.99,West,277,10.2,15.0,77,0.00,OVC,,0.00,WeatherDisplay:10.37,2013-02-02 19:57:00,
2013-02-02 14:02:00,28.1,21.8,29.99,West,273,2.9,4.6,77,0.00,OVC,,0.00,WeatherDisplay:10.37,2013-02-02 20:02:00,
2013-02-02 14:07:00,28.1,22.1,29.99,WSW,244,0.9,3.5,78,0.00,OVC,,0.00,WeatherDisplay:10.37,2013-02-02 20:07:00,
2013-02-02 14:12:00,28.2,22.2,29.99,WSW,254,4.9,8.1,78,0.00,OVC,,0.00,WeatherDisplay:10.37,2013-02-02 20:12:00,
2013-02-02 14:17:00,28.1,22.1,29.99,WNW,286,6.9,6.9,78,0.00,OVC,,0.00,WeatherDisplay:10.37,2013-02-02 20:17:00,
2013-02-02 14:22:00,28.1,22.1,29.99,WNW,285,12.5,15.0,78,0.00,OVC,,0.00,WeatherDisplay:10.37,2013-02-02 20:22:00,
2013-02-02 14:27:00,27.9,22.2,29.99,West,281,6.6,9.2,79,0.00,OVC,,0.00,WeatherDisplay:10.37,2013-02-02 20:27:00,
2013-02-02 14:33:00,27.9,22.2,30.00,West,261,11.4,16.1,79,0.00,OVC,,0.00,WeatherDisplay:10.37,2013-02-02 20:33:00,
2013-02-02 14:38:00,27.9,22.2,30.00,WNW,288,7.3,8.1,79,0.00,OVC,,0.00,WeatherDisplay:10.37,2013-02-02 20:38:00,
2013-02-02 14:43:00,27.9,22.2,30.00,West,267,4.2,4.6,79,0.00,OVC,,0.00,WeatherDisplay:10.37,2013-02-02 20:43:00,
2013-02-02 14:48:00,27.9,22.2,30.00,West,281,4.8,4.8,79,0.00,OVC,,0.00,WeatherDisplay:10.37,2013-02-02 20:48:00,
2013-02-02 14:53:00,27.8,22.4,30.00,WNW,289,1.6,4.6,80,0.00,OVC,,0.00,WeatherDisplay:10.37,2013-02-02 20:53:00,
2013-02-02 14:58:00,27.8,22.4,30.00,NW,312,8.9,15.0,80,0.00,OVC,,0.00,WeatherDisplay:10.37,2013-02-02 20:58:00,
2013-02-02 15:03:00,27.6,22.2,30.00,NNW,335,3.4,7.5,80,0.00,OVC,,0.00,WeatherDisplay:10.37,2013-02-02 21:03:00,
2013-02-02 15:08:00,27.6,22.2,30.01,WNW,290,8.8,13.8,80,0.00,OVC,,0.00,WeatherDisplay:10.37,2013-02-02 21:08:00,
2013-02-02 15:13:00,27.6,22.2,30.01,NW,311,4.4,4.6,80,0.00,OVC,,0.00,WeatherDisplay:10.37,2013-02-02 21:13:00,
2013-02-02 15:18:00,27.6,22.2,30.01,WNW,290,8.4,9.2,80,0.00,OVC,,0.00,WeatherDisplay:10.37,2013-02-02 21:18:00,
2013-02-02 15:23:00,27.6,22.2,30.01,West,260,6.2,9.2,80,0.00,OVC,,0.00,WeatherDisplay:10.37,2013-02-02 21:23:00,
2013-02-02 15:28:00,27.6,22.2,30.01,SSW,199,8.3,10.5,80,0.00,OVC,,0.00,WeatherDisplay:10.37,2013-02-02 21:28:00,
2013-02-02 15:33:00,27.6,21.9,30.01,WNW,282,4.7,6.0,79,0.00,OVC,,0.00,WeatherDisplay:10.37,2013-02-02 21:33:00,
2013-02-02 15:38:00,27.6,21.9,30.01,WNW,302,3.1,4.6,79,0.00,OVC,,0.00,WeatherDisplay:10.37,2013-02-02 21:38:00,
2013-02-02 15:43:00,27.6,21.9,30.01,West,270,7.1,10.4,79,0.00,OVC,,0.00,WeatherDisplay:10.37,2013-02-02 21:43:00,
2013-02-02 15:48:00,27.5,21.8,30.01,NW,309,4.5,4.6,79,0.00,OVC,,0.00,WeatherDisplay:10.37,2013-02-02 21:48:00,
2013-02-02 15:53:00,27.3,21.3,30.02,NW,311,13.7,20.7,78,0.00,OVC,,0.00,WeatherDisplay:10.37,2013-02-02 21:53:00,
2013-02-02 15:58:00,26.9,21.3,30.02,WNW,290,8.8,15.0,79,0.00,OVC,,0.00,WeatherDisplay:10.37,2013-02-02 21:58:00,
2013-02-02 16:03:00,26.3,20.7,30.03,WNW,285,11.7,16.1,79,0.00,OVC,,0.00,WeatherDisplay:10.37,2013-02-02 22:03:00,
2013-02-02 16:08:00,25.7,20.1,30.03,West,281,8.2,15.0,79,0.00,OVC,,0.00,WeatherDisplay:10.37,2013-02-02 22:08:00,
2013-02-02 16:13:00,25.1,19.5,30.04,WNW,288,7.9,15.0,79,0.00,OVC,,0.00,WeatherDisplay:10.37,2013-02-02 22:13:00,
2013-02-02 16:18:00,24.4,18.5,30.04,West,275,9.9,13.8,78,0.00,OVC,,0.00,WeatherDisplay:10.37,2013-02-02 22:18:00,
2013-02-02 16:23:00,24.1,18.2,30.04,WNW,282,14.2,16.1,78,0.00,OVC,,0.00,WeatherDisplay:10.37,2013-02-02 22:23:00,
2013-02-02 16:28:00,23.8,17.9,30.04,WNW,297,8.4,11.5,78,0.00,OVC,,0.00,WeatherDisplay:10.37,2013-02-02 22:28:00,
2013-02-02 16:33:00,23.5,17.6,30.05,West,281,17.2,19.6,78,0.00,OVC,,0.00,WeatherDisplay:10.37,2013-02-02 22:33:00,
2013-02-02 16:38:00,23.3,17.5,30.05,WNW,302,10.1,13.8,78,0.00,OVC,,0.00,WeatherDisplay:10.37,2013-02-02 22:38:00,
2013-02-02 16:43:00,23.0,16.9,30.05,NW,304,6.8,12.0,77,0.00,OVC,,0.00,WeatherDisplay:10.37,2013-02-02 22:43:00,
2013-02-02 16:48:00,23.0,16.9,30.05,NW,317,9.3,10.4,77,0.00,OVC,,0.00,WeatherDisplay:10.37,2013-02-02 22:48:00,
2013-02-02 16:53:00,22.7,16.0,30.05,West,275,14.3,18.4,75,0.00,OVC,,0.00,WeatherDisplay:10.37,2013-02-02 22:53:00,
2013-02-02 16:58:00,22.4,15.7,30.06,WNW,285,12.0,12.0,75,0.00,OVC,,0.00,WeatherDisplay:10.37,2013-02-02 22:58:00,
2013-02-02 17:03:00,21.9,14.9,30.06,West,277,11.8,13.5,74,0.00,OVC,,0.00,WeatherDisplay:10.37,2013-02-02 23:03:00,
2013-02-02 17:08:00,21.6,14.9,30.06,West,265,11.3,16.1,75,0.00,OVC,,0.00,WeatherDisplay:10.37,2013-02-02 23:08:00,
2013-02-02 17:13:00,21.4,14.7,30.06,West,274,7.2,9.0,75,0.00,OVC,,0.00,WeatherDisplay:10.37,2013-02-02 23:13:00,
2013-02-02 17:18:00,21.1,14.4,30.06,NW,324,7.1,10.4,75,0.00,OVC,,0.00,WeatherDisplay:10.37,2013-02-02 23:18:00,
2013-02-02 17:23:00,21.1,14.7,30.06,West,271,6.9,9.0,76,0.00,OVC,,0.00,WeatherDisplay:10.37,2013-02-02 23:23:00,
2013-02-02 17:28:00,20.8,14.4,30.06,West,275,10.6,15.0,76,0.00,OVC,,0.00,WeatherDisplay:10.37,2013-02-02 23:28:00,
2013-02-02 17:33:00,20.5,13.8,30.06,WNW,282,8.1,9.2,75,0.00,OVC,,0.00,WeatherDisplay:10.37,2013-02-02 23:33:00,
2013-02-02 17:38:00,20.2,13.2,30.07,WNW,292,13.3,16.1,74,0.00,OVC,,0.00,WeatherDisplay:10.37,2013-02-02 23:38:00,
2013-02-02 17:43:00,19.9,12.9,30.07,WNW,296,10.5,16.1,74,0.00,OVC,,0.00,WeatherDisplay:10.37,2013-02-02 23:43:00,
2013-02-02 17:48:00,19.5,12.6,30.07,WNW,299,5.4,8.1,74,0.00,OVC,,0.00,WeatherDisplay:10.37,2013-02-02 23:48:00,
2013-02-02 17:53:00,19.4,12.5,30.07,WNW,302,9.5,13.8,74,0.00,OVC,,0.00,WeatherDisplay:10.37,2013-02-02 23:53:00,
2013-02-02 17:58:00,19.4,12.8,30.07,SW,234,3.9,9.0,75,0.00,OVC,,0.00,WeatherDisplay:10.37,2013-02-02 23:58:00,
2013-02-02 18:03:00,19.2,12.3,30.07,NW,312,13.1,16.1,74,0.00,OVC,,0.00,WeatherDisplay:10.37,2013-02-03 00:03:00,
2013-02-02 18:08:00,18.9,11.7,30.08,WNW,293,9.8,9.8,73,0.00,OVC,,0.00,WeatherDisplay:10.37,2013-02-03 00:08:00,
2013-02-02 18:13:00,18.8,11.6,30.08,NNW,340,5.6,9.0,73,0.00,OVC,,0.00,WeatherDisplay:10.37,2013-02-03 00:13:00,
2013-02-02 18:18:00,18.4,11.2,30.08,WNW,296,0.8,4.6,73,0.00,OVC,,0.00,WeatherDisplay:10.37,2013-02-03 00:18:00,
2013-02-02 18:23:00,18.3,11.1,30.08,WSW,244,7.0,9.2,73,0.00,OVC,,0.00,WeatherDisplay:10.37,2013-02-03 00:23:00,
2013-02-02 18:28:00,18.0,10.8,30.09,NW,310,5.0,9.2,73,0.00,OVC,,0.00,WeatherDisplay:10.37,2013-02-03 00:28:00,
2013-02-02 18:33:00,17.8,10.9,30.09,West,278,6.2,8.1,74,0.00,OVC,,0.00,WeatherDisplay:10.37,2013-02-03 00:33:00,
2013-02-02 18:38:00,17.8,10.9,30.09,WNW,299,6.9,6.9,74,0.00,OVC,,0.00,WeatherDisplay:10.37,2013-02-03 00:38:00,
2013-02-02 18:43:00,17.8,10.9,30.09,WNW,292,6.1,6.1,74,0.00,OVC,,0.00,WeatherDisplay:10.37,2013-02-03 00:43:00,
2013-02-02 18:48:00,17.8,10.9,30.09,West,276,2.7,5.8,74,0.00,OVC,,0.00,WeatherDisplay:10.37,2013-02-03 00:48:00,
2013-02-02 18:53:00,17.7,10.8,30.09,WNW,289,10.2,10.2,74,0.00,SCT,,0.00,WeatherDisplay:10.37,2013-02-03 00:53:00,
2013-02-02 18:58:00,17.5,10.6,30.09,WNW,284,6.8,6.8,74,0.00,SCT,,0.00,WeatherDisplay:10.37,2013-02-03 00:58:00,
2013-02-02 19:03:00,17.3,10.4,30.09,West,259,5.7,5.8,74,0.00,SCT,,0.00,WeatherDisplay:10.37,2013-02-03 01:03:00,
2013-02-02 19:08:00,17.3,10.7,30.09,WNW,297,2.3,8.1,75,0.00,SCT,,0.00,WeatherDisplay:10.37,2013-02-03 01:08:00,
2013-02-02 19:13:00,17.2,10.6,30.09,NW,305,2.3,8.1,75,0.00,CLR,,0.00,WeatherDisplay:10.37,2013-02-03 01:13:00,
2013-02-02 19:18:00,17.0,10.4,30.09,NW,311,7.3,9.2,75,0.00,CLR,,0.00,WeatherDisplay:10.37,2013-02-03 01:18:00,
2013-02-02 19:23:00,17.0,10.7,30.09,West,263,4.0,5.8,76,0.00,CLR,,0.00,WeatherDisplay:10.37,2013-02-03 01:23:00,
2013-02-02 19:28:00,16.9,10.6,30.10,West,269,6.1,6.1,76,0.00,CLR,,0.00,WeatherDisplay:10.37,2013-02-03 01:28:00,
2013-02-02 19:33:00,16.9,10.9,30.10,WNW,283,2.7,4.5,77,0.00,CLR,,0.00,WeatherDisplay:10.37,2013-02-03 01:33:00,
2013-02-02 19:38:00,17.0,10.7,30.09,West,278,6.8,6.8,76,0.00,CLR,,0.00,WeatherDisplay:10.37,2013-02-03 01:38:00,
2013-02-02 19:43:00,16.9,10.6,30.09,West,267,6.6,8.1,76,0.00,CLR,,0.00,WeatherDisplay:10.37,2013-02-03 01:43:00,
2013-02-02 19:48:00,16.9,10.6,30.09,WNW,287,4.7,5.8,76,0.00,CLR,,0.00,WeatherDisplay:10.37,2013-02-03 01:48:00,
2013-02-02 19:53:00,16.7,10.1,30.09,WNW,298,4.3,9.2,75,0.00,SCT,,0.00,WeatherDisplay:10.37,2013-02-03 01:53:00,
2013-02-02 19:58:00,16.7,9.8,30.09,WNW,286,6.6,6.6,74,0.00,SCT,,0.00,WeatherDisplay:10.37,2013-02-03 01:58:00,
2013-02-02 20:03:00,16.5,9.7,30.09,WNW,296,1.5,4.6,74,0.00,SCT,,0.00,WeatherDisplay:10.37,2013-02-03 02:03:00,
2013-02-02 20:08:00,16.5,9.4,30.08,WNW,290,4.7,10.4,73,0.00,SCT,,0.00,WeatherDisplay:10.37,2013-02-03 02:08:00,
2013-02-02 20:13:00,16.4,8.9,30.08,WNW,302,11.3,12.0,72,0.00,BKN,,0.00,WeatherDisplay:10.37,2013-02-03 02:13:00,
2013-02-02 20:18:00,16.4,9.3,30.08,WNW,290,7.6,8.1,73,0.00,BKN,,0.00,WeatherDisplay:10.37,2013-02-03 02:18:00,
2013-02-02 20:23:00,16.2,9.4,30.08,NNW,328,9.1,9.1,74,0.00,BKN,,0.00,WeatherDisplay:10.37,2013-02-03 02:23:00,
2013-02-02 20:28:00,16.1,9.6,30.09,WNW,302,2.2,5.8,75,0.00,BKN,,0.00,WeatherDisplay:10.37,2013-02-03 02:28:00,
2013-02-02 20:33:00,16.1,9.6,30.08,NW,321,3.9,10.4,75,0.00,OVC,,0.00,WeatherDisplay:10.37,2013-02-03 02:33:00,
2013-02-02 20:38:00,15.9,9.4,30.08,NNW,328,5.1,8.1,75,0.00,OVC,,0.00,WeatherDisplay:10.37,2013-02-03 02:38:00,
2013-02-02 20:43:00,15.6,9.4,30.08,NNE,17,3.7,8.1,76,0.00,OVC,,0.00,WeatherDisplay:10.37,2013-02-03 02:43:00,
2013-02-02 20:48:00,15.4,9.5,30.09,WNW,286,1.5,3.5,77,0.00,OVC,,0.00,WeatherDisplay:10.37,2013-02-03 02:48:00,
2013-02-02 20:53:00,15.2,9.3,30.09,NNW,340,3.5,4.6,77,0.00,OVC,,0.00,WeatherDisplay:10.37,2013-02-03 02:53:00,
2013-02-02 20:58:00,15.1,9.2,30.09,NW,313,1.9,3.5,77,0.00,OVC,,0.00,WeatherDisplay:10.37,2013-02-03 02:58:00,
2013-02-02 21:03:00,14.9,9.0,30.09,NW,313,2.2,3.5,77,0.00,OVC,,0.00,WeatherDisplay:10.37,2013-02-03 03:03:00,
2013-02-02 21:08:00,14.6,8.7,30.09,NW,313,0.3,3.0,77,0.00,OVC,,0.00,WeatherDisplay:10.37,2013-02-03 03:08:00,
2013-02-02 21:13:00,14.3,8.4,30.08,NNW,331,6.4,8.1,77,0.00,BKN,,0.00,WeatherDisplay:10.37,2013-02-03 03:13:00,
2013-02-02 21:18:00,14.0,8.1,30.09,WNW,294,5.1,5.8,77,0.00,BKN,,0.00,WeatherDisplay:10.37,2013-02-03 03:18:00,
2013-02-02 21:23:00,13.8,7.9,30.09,NW,313,6.3,9.2,77,0.00,BKN,,0.00,WeatherDisplay:10.37,2013-02-03 03:23:00,
2013-02-02 21:28:00,13.8,7.9,30.09,NW,308,3.0,4.6,77,0.00,BKN,,0.00,WeatherDisplay:10.37,2013-02-03 03:28:00,
2013-02-02 21:33:00,13.8,7.9,30.09,NW,308,3.0,3.5,77,0.00,BKN,,0.00,WeatherDisplay:10.37,2013-02-03 03:33:00,
2013-02-02 21:38:00,14.0,8.1,30.09,NW,322,1.7,4.6,77,0.00,BKN,,0.00,WeatherDisplay:10.37,2013-02-03 03:38:00,
2013-02-02 21:43:00,14.1,8.2,30.10,West,265,2.6,4.6,77,0.00,BKN,,0.00,WeatherDisplay:10.37,2013-02-03 03:43:00,
2013-02-02 21:49:00,14.1,8.2,30.10,WNW,296,0.5,1.1,77,0.00,BKN,,0.00,WeatherDisplay:10.37,2013-02-03 03:49:00,
2013-02-02 21:54:00,14.3,8.4,30.09,WNW,289,0.4,1.1,77,0.00,SCT,,0.00,WeatherDisplay:10.37,2013-02-03 03:54:00,
2013-02-02 21:59:00,14.3,8.4,30.09,WNW,298,1.0,3.5,77,0.00,SCT,,0.00,WeatherDisplay:10.37,2013-02-03 03:59:00,
2013-02-02 22:04:00,14.4,8.5,30.09,WNW,297,0.9,3.5,77,0.00,SCT,,0.00,WeatherDisplay:10.37,2013-02-03 04:04:00,
2013-02-02 22:09:00,14.4,8.5,30.09,WNW,297,1.8,3.5,77,0.00,SCT,,0.00,WeatherDisplay:10.37,2013-02-03 04:09:00,
2013-02-02 22:14:00,14.6,8.7,30.08,WNW,297,1.8,5.8,77,0.00,OVC,,0.00,WeatherDisplay:10.37,2013-02-03 04:14:00,
2013-02-02 22:19:00,14.6,8.4,30.08,WNW,297,1.8,3.5,76,0.00,OVC,,0.00,WeatherDisplay:10.37,2013-02-03 04:19:00,
2013-02-02 22:24:00,14.6,8.4,30.08,WNW,299,4.9,5.8,76,0.00,OVC,,0.00,WeatherDisplay:10.37,2013-02-03 04:24:00,
2013-02-02 22:29:00,14.8,8.3,30.08,NW,306,6.0,6.0,75,0.00,OVC,,0.00,WeatherDisplay:10.37,2013-02-03 04:29:00,
2013-02-02 22:34:00,14.8,8.0,30.08,NW,312,6.4,8.1,74,0.00,OVC,,0.00,WeatherDisplay:10.37,2013-02-03 04:34:00,
2013-02-02 22:39:00,14.8,8.0,30.08,NW,306,6.7,6.7,74,0.00,OVC,,0.00,WeatherDisplay:10.37,2013-02-03 04:39:00,
2013-02-02 22:44:00,14.6,7.5,30.08,NW,314,4.4,4.6,73,0.00,OVC,,0.00,WeatherDisplay:10.37,2013-02-03 04:44:00,
2013-02-02 22:49:00,14.8,7.7,30.07,NW,314,2.5,4.6,73,0.00,OVC,,0.00,WeatherDisplay:10.37,2013-02-03 04:49:00,
2013-02-02 22:54:00,14.6,7.5,30.07,NW,314,2.7,3.5,73,0.00,OVC,,0.00,WeatherDisplay:10.37,2013-02-03 04:54:00,
2013-02-02 22:59:00,14.6,7.5,30.07,NW,319,1.5,3.5,73,0.00,OVC,,0.00,WeatherDisplay:10.37,2013-02-03 04:59:00,
2013-02-02 23:00:00,14.6,7.5,30.07,NW,319,0.2,1.1,73,0.00,OVC,,0.00,WeatherDisplay:10.37,2013-02-03 05:00:00,
2013-02-02 23:01:00,14.6,7.5,30.07,NW,319,0.7,1.5,73,0.00,OVC,,0.00,WeatherDisplay:10.37,2013-02-03 05:01:00,
2013-02-02 23:03:00,14.4,7.3,30.07,NW,319,1.3,3.0,73,0.00,OVC,,0.00,WeatherDisplay:10.37,2013-02-03 05:03:00,
2013-02-02 23:08:00,14.3,7.2,30.07,NW,304,0.5,1.5,73,0.00,OVC,,0.00,WeatherDisplay:10.37,2013-02-03 05:08:00,
2013-02-02 23:13:00,14.1,7.0,30.06,NW,304,0.0,0.0,73,0.00,OVC,,0.00,WeatherDisplay:10.37,2013-02-03 05:13:00,
2013-02-02 23:18:00,14.0,6.9,30.06,NW,304,0.0,0.0,73,0.00,OVC,,0.00,WeatherDisplay:10.37,2013-02-03 05:18:00,
2013-02-02 23:23:00,13.6,6.5,30.06,NW,304,0.0,0.0,73,0.00,OVC,,0.00,WeatherDisplay:10.37,2013-02-03 05:23:00,
2013-02-02 23:28:00,13.3,6.6,30.06,NW,304,0.0,0.0,74,0.00,OVC,,0.00,WeatherDisplay:10.37,2013-02-03 05:28:00,
2013-02-02 23:33:00,13.1,6.4,30.05,NW,304,0.0,0.0,74,0.00,SCT,,0.00,WeatherDisplay:10.37,2013-02-03 05:33:00,
2013-02-02 23:38:00,12.8,6.1,30.05,NW,304,0.0,0.0,74,0.00,SCT,,0.00,WeatherDisplay:10.37,2013-02-03 05:38:00,
2013-02-02 23:43:00,12.6,6.2,30.05,NW,304,0.0,0.0,75,0.00,SCT,,0.00,WeatherDisplay:10.37,2013-02-03 05:43:00,
2013-02-02 23:48:00,12.3,5.9,30.05,NW,304,0.0,0.0,75,0.00,SCT,,0.00,WeatherDisplay:10.37,2013-02-03 05:48:00,
2013-02-02 23:53:00,11.9,5.8,30.05,NW,304,0.3,1.1,76,0.00,CLR,,0.00,WeatherDisplay:10.37,2013-02-03 05:53:00,
2013-02-02 23:58:00,11.7,5.6,30.05,NW,304,0.0,0.0,76,0.00,CLR,,0.00,WeatherDisplay:10.37,2013-02-03 05:58:00,